Time;durP1;ratioP1;P1;durP2;ratioP2;P2;SDS_P1;SDS_P2;PMS_P1;PMS_P2;Temp;Humidity;BMP_temperature;BMP_pressure;BME280_temperature;BME280_humidity;BME280_pressure;Samples;Min_cycle;Max_cycle;Signal;HPM_P1;HPM_P2
2022/08/07 00:01:42;;;;;;;1.70;1.07;;;;;;;17.75;41.46;98668.56;5054361;28;20201;-70
2022/08/07 00:04:09;;;;;;;1.53;1.20;;;;;;;17.65;43.04;98666.53;5053881;28;20664;-69
2022/08/07 00:06:35;;;;;;;1.20;1.10;;;;;;;17.58;43.28;98671.28;5054253;28;20303;-70
2022/08/07 00:09:02;;;;;;;1.60;1.20;;;;;;;17.55;43.85;98661.03;5054164;28;20260;-70
2022/08/07 00:11:29;;;;;;;2.90;1.00;;;;;;;17.51;43.15;98673.34;5053964;28;20739;-70
2022/08/07 00:13:55;;;;;;;2.23;1.10;;;;;;;17.44;42.74;98671.88;5054222;28;20296;-70
2022/08/07 00:16:22;;;;;;;1.03;1.00;;;;;;;17.41;41.94;98665.13;5054110;28;20567;-70
2022/08/07 00:18:48;;;;;;;2.40;0.80;;;;;;;17.46;41.90;98670.56;5054067;28;20220;-70
2022/08/07 00:21:15;;;;;;;1.53;1.07;;;;;;;17.47;41.56;98661.44;5054082;28;20292;-70
2022/08/07 00:23:41;;;;;;;1.10;1.00;;;;;;;17.48;41.71;98663.09;5053957;28;20206;-70
2022/08/07 00:26:09;;;;;;;0.97;0.97;;;;;;;17.37;43.58;98657.78;5053649;28;20687;-70
2022/08/07 00:28:36;;;;;;;1.73;1.27;;;;;;;17.27;42.68;98658.44;5053622;28;20300;-70
2022/08/07 00:31:08;;;;;;;2.13;1.37;;;;;;;17.18;44.67;98654.56;5054109;28;20212;-70
2022/08/07 00:33:39;;;;;;;1.90;1.30;;;;;;;17.05;43.73;98652.22;5053899;28;20205;-70
2022/08/07 00:36:06;;;;;;;1.77;1.20;;;;;;;17.04;45.18;98655.97;5053528;28;20644;-70
2022/08/07 00:38:35;;;;;;;2.90;1.20;;;;;;;17.11;44.34;98651.25;5053366;28;20564;-70
2022/08/07 00:41:03;;;;;;;3.03;1.30;;;;;;;17.13;44.37;98656.34;5053755;28;20299;-70
2022/08/07 00:43:29;;;;;;;2.40;1.37;;;;;;;17.05;45.00;98664.84;5053382;28;20205;-70
2022/08/07 00:45:56;;;;;;;1.43;1.30;;;;;;;17.13;43.35;98657.16;5053383;28;20301;-70
2022/08/07 00:48:22;;;;;;;1.63;1.47;;;;;;;17.25;43.29;98665.13;5053287;28;20300;-70
2022/08/07 00:50:49;;;;;;;1.70;1.40;;;;;;;17.16;44.48;98664.75;5053196;28;20225;-70
2022/08/07 00:53:15;;;;;;;1.60;1.50;;;;;;;16.98;45.70;98672.25;5053498;28;20205;-69
2022/08/07 00:55:42;;;;;;;3.30;1.60;;;;;;;16.90;45.96;98672.63;5053542;28;20205;-70
2022/08/07 00:58:08;;;;;;;1.83;1.40;;;;;;;16.87;46.12;98667.78;5053475;28;20299;-70
2022/08/07 01:00:34;;;;;;;2.47;1.40;;;;;;;16.75;46.87;98675.91;5053110;28;20720;-70
2022/08/07 01:03:01;;;;;;;3.87;1.50;;;;;;;16.89;46.20;98673.69;5053422;28;20287;-70
2022/08/07 01:05:29;;;;;;;1.73;1.60;;;;;;;16.88;46.89;98664.81;5052926;28;20210;-70
2022/08/07 01:07:56;;;;;;;1.73;1.60;;;;;;;16.80;44.83;98667.94;5053259;28;20205;-71
2022/08/07 01:10:23;;;;;;;1.50;1.30;;;;;;;16.90;45.33;98657.34;5053114;28;20222;-70
2022/08/07 01:12:49;;;;;;;2.27;1.30;;;;;;;16.84;45.56;98661.03;5053073;28;20263;-70
2022/08/07 01:15:16;;;;;;;1.70;1.53;;;;;;;16.75;46.27;98662.47;5053361;28;20209;-70
2022/08/07 01:17:43;;;;;;;1.97;1.33;;;;;;;16.68;46.85;98669.03;5053164;28;20288;-70
2022/08/07 01:20:12;;;;;;;2.40;1.30;;;;;;;16.61;46.94;98663.81;5035186;28;20304;-70
2022/08/07 01:22:40;;;;;;;2.87;1.70;;;;;;;16.61;47.02;98661.13;5053158;28;20241;-70
2022/08/07 01:25:08;;;;;;;2.40;1.50;;;;;;;16.56;46.21;98658.38;5053010;28;20201;-70
2022/08/07 01:27:35;;;;;;;2.17;1.50;;;;;;;16.64;46.09;98654.50;5053052;28;20205;-70
2022/08/07 01:30:02;;;;;;;2.27;1.40;;;;;;;16.60;45.34;98648.00;5052608;28;20320;-70
2022/08/07 01:32:29;;;;;;;2.03;1.60;;;;;;;16.60;47.33;98659.53;5035340;28;20205;-70
2022/08/07 01:34:56;;;;;;;1.83;1.40;;;;;;;16.58;47.44;98663.50;5053168;28;20294;-70
2022/08/07 01:37:22;;;;;;;2.53;1.70;;;;;;;16.61;47.42;98652.28;5053305;28;20211;-70
2022/08/07 01:39:49;;;;;;;2.20;1.43;;;;;;;16.45;47.42;98659.25;5053041;28;20316;-70
2022/08/07 01:42:17;;;;;;;2.80;1.50;;;;;;;16.29;47.74;98656.53;5052792;28;20672;-70
2022/08/07 01:44:44;;;;;;;3.40;1.43;;;;;;;16.49;46.79;98657.72;5053170;28;20308;-70
2022/08/07 01:47:10;;;;;;;1.40;1.30;;;;;;;16.47;47.15;98651.78;5053036;28;20205;-70
2022/08/07 01:49:37;;;;;;;1.70;1.20;;;;;;;16.48;47.15;98653.41;5052975;28;20229;-70
2022/08/07 01:52:06;;;;;;;3.03;1.50;;;;;;;16.50;48.32;98656.66;5052767;28;20209;-70
2022/08/07 01:54:36;;;;;;;1.80;1.33;;;;;;;16.42;48.62;98649.00;5053492;28;20201;-70
2022/08/07 01:57:09;;;;;;;2.60;1.90;;;;;;;16.33;48.55;98645.06;5039532;28;20201;-70
2022/08/07 01:59:45;;;;;;;3.43;1.37;;;;;;;16.40;47.83;98651.13;5056485;28;20217;-70
2022/08/07 02:02:24;;;;;;;4.73;1.50;;;;;;;16.27;49.11;98650.56;5056476;28;20197;-70
2022/08/07 02:04:57;;;;;;;3.53;1.43;;;;;;;16.19;48.85;98651.78;5039188;28;20201;-70
2022/08/07 02:07:29;;;;;;;2.23;1.33;;;;;;;16.18;48.55;98649.31;5056687;28;20228;-70
2022/08/07 02:09:57;;;;;;;2.63;1.50;;;;;;;16.23;48.30;98639.50;5056240;28;20275;-70
2022/08/07 02:12:26;;;;;;;2.90;1.50;;;;;;;16.22;48.36;98643.25;5056594;28;20209;-70
2022/08/07 02:14:54;;;;;;;2.03;1.50;;;;;;;16.12;48.59;98642.25;5056439;28;20548;-70
2022/08/07 02:17:22;;;;;;;3.27;1.40;;;;;;;16.04;49.04;98637.25;5056168;28;20564;-70
2022/08/07 02:19:49;;;;;;;1.97;1.57;;;;;;;16.02;48.96;98634.81;5038338;28;20567;-70
2022/08/07 02:22:19;;;;;;;1.80;1.27;;;;;;;15.99;48.58;98643.34;5056363;28;20665;-70
2022/08/07 02:24:47;;;;;;;2.70;1.40;;;;;;;15.86;49.04;98646.31;5038827;28;20212;-70
2022/08/07 02:27:16;;;;;;;2.23;1.20;;;;;;;15.84;48.96;98636.88;5056298;28;20255;-70
2022/08/07 02:29:44;;;;;;;2.70;1.40;;;;;;;15.91;48.89;98630.31;5056003;28;20327;-70
2022/08/07 02:32:11;;;;;;;1.57;1.27;;;;;;;15.99;48.81;98626.44;5056207;28;20209;-70
2022/08/07 02:34:39;;;;;;;2.87;1.40;;;;;;;15.91;49.52;98633.00;5056159;28;20296;-70
2022/08/07 02:37:07;;;;;;;1.50;1.40;;;;;;;15.85;49.29;98625.91;5056072;28;20205;-70
2022/08/07 02:39:36;;;;;;;1.70;1.30;;;;;;;15.95;49.15;98626.09;5038742;28;20221;-69
2022/08/07 02:42:03;;;;;;;2.33;1.03;;;;;;;15.92;49.63;98626.56;5056059;28;20201;-70
2022/08/07 02:44:31;;;;;;;1.30;1.20;;;;;;;15.93;49.78;98619.34;5038314;28;20212;-70
2022/08/07 02:47:00;;;;;;;1.80;1.23;;;;;;;15.87;49.69;98620.31;5055629;28;20205;-70
2022/08/07 02:49:26;;;;;;;2.00;1.30;;;;;;;15.81;49.94;98630.13;5055655;28;20225;-70
2022/08/07 02:51:57;;;;;;;3.03;1.27;;;;;;;15.78;49.71;98627.09;5055752;28;20209;-70
2022/08/07 02:54:27;;;;;;;2.90;1.20;;;;;;;15.78;49.57;98629.78;5055275;28;20514;-70
2022/08/07 02:56:56;;;;;;;2.10;1.30;;;;;;;15.72;49.63;98620.00;5038105;28;20200;-70
2022/08/07 02:59:26;;;;;;;1.40;1.20;;;;;;;15.73;49.99;98616.25;5055229;28;20225;-70
2022/08/07 03:01:54;;;;;;;1.60;1.30;;;;;;;15.74;50.78;98618.69;5055593;28;20564;-70
2022/08/07 03:04:22;;;;;;;1.73;1.20;;;;;;;15.78;50.16;98613.72;5055459;28;20237;-70
2022/08/07 03:06:50;;;;;;;1.70;1.00;;;;;;;15.81;50.56;98618.56;5054998;28;20215;-70
2022/08/07 03:09:18;;;;;;;1.47;1.27;;;;;;;15.76;50.69;98619.31;5055526;28;20249;-70
2022/08/07 03:11:45;;;;;;;3.13;1.00;;;;;;;15.73;51.22;98621.63;5055655;28;20209;-70
2022/08/07 03:14:12;;;;;;;2.17;1.20;;;;;;;15.75;50.97;98622.22;5037295;28;20209;-70
2022/08/07 03:16:39;;;;;;;1.60;1.30;;;;;;;15.72;51.63;98625.34;5037578;28;20613;-70
2022/08/07 03:19:07;;;;;;;2.40;1.20;;;;;;;15.69;51.75;98628.53;5055078;28;20278;-70
2022/08/07 03:21:34;;;;;;;2.07;1.30;;;;;;;15.66;52.01;98620.97;5055211;28;20252;-69
2022/08/07 03:24:01;;;;;;;1.30;1.20;;;;;;;15.61;52.40;98631.56;5054897;28;20772;-70
2022/08/07 03:26:32;;;;;;;1.47;1.10;;;;;;;15.49;52.37;98620.88;5037682;28;20288;-70
2022/08/07 03:29:02;;;;;;;1.83;1.23;;;;;;;15.62;52.34;98625.16;5054618;28;20244;-70
2022/08/07 03:31:31;;;;;;;2.30;1.40;;;;;;;15.54;53.16;98631.72;5054703;28;20297;-70
2022/08/07 03:34:01;;;;;;;2.37;1.20;;;;;;;15.29;53.97;98630.31;5038088;28;20287;-70
2022/08/07 03:36:30;;;;;;;1.20;1.03;;;;;;;15.23;53.95;98626.72;5055443;28;20189;-70
2022/08/07 03:39:05;;;;;;;2.90;1.20;;;;;;;15.10;54.01;98618.13;5054325;28;20576;-70
2022/08/07 03:41:32;;;;;;;2.13;1.33;;;;;;;15.21;53.81;98628.00;5054543;28;20540;-70
2022/08/07 03:43:59;;;;;;;1.77;1.30;;;;;;;15.23;53.90;98620.53;5054320;28;20716;-70
2022/08/07 03:46:27;;;;;;;1.80;1.50;;;;;;;15.27;53.84;98621.69;5054583;28;20208;-70
2022/08/07 03:48:54;;;;;;;2.63;1.30;;;;;;;15.16;54.20;98625.22;5036859;28;20229;-70
2022/08/07 03:51:21;;;;;;;2.57;1.90;;;;;;;15.22;54.23;98624.25;5054378;28;20312;-70
2022/08/07 03:53:48;;;;;;;3.93;2.20;;;;;;;15.18;54.49;98615.88;5054544;28;20205;-70
2022/08/07 03:56:20;;;;;;;1.90;1.40;;;;;;;15.18;54.36;98618.56;5020212;28;20208;-70
2022/08/07 03:58:47;;;;;;;3.47;1.23;;;;;;;15.29;53.83;98615.03;5054223;28;20256;-70
2022/08/07 04:01:16;;;;;;;1.87;1.47;;;;;;;15.26;54.55;98615.53;5054066;28;20656;-70
2022/08/07 04:03:43;;;;;;;1.90;1.23;;;;;;;15.29;54.33;98611.56;5054418;28;20288;-69
2022/08/07 04:06:10;;;;;;;2.00;1.47;;;;;;;15.24;54.60;98612.25;5054000;28;20650;-70
2022/08/07 04:08:39;;;;;;;1.70;1.40;;;;;;;15.29;54.22;98617.72;5054071;28;20215;-70
2022/08/07 04:11:06;;;;;;;1.30;1.07;;;;;;;15.14;54.40;98622.75;5054014;28;20229;-70
2022/08/07 04:13:34;;;;;;;1.23;1.00;;;;;;;15.04;54.79;98622.53;5054160;28;20201;-70
2022/08/07 04:16:01;;;;;;;1.37;1.20;;;;;;;14.98;55.30;98628.00;5054014;28;20301;-70
2022/08/07 04:18:27;;;;;;;2.00;1.27;;;;;;;14.84;55.77;98622.06;5052924;28;20211;-70
2022/08/07 04:20:54;;;;;;;1.67;1.30;;;;;;;15.03;55.14;98626.28;5053990;28;20292;-70
2022/08/07 04:23:21;;;;;;;1.50;0.97;;;;;;;14.81;56.47;98633.25;5054000;28;20208;-70
2022/08/07 04:25:48;;;;;;;0.90;0.90;;;;;;;14.94;55.93;98626.84;5053973;28;20295;-70
2022/08/07 04:28:15;;;;;;;1.63;1.10;;;;;;;15.03;55.99;98633.47;5053860;28;20296;-70
2022/08/07 04:30:42;;;;;;;1.33;1.10;;;;;;;15.03;56.30;98642.34;5053545;28;20233;-70
2022/08/07 04:33:10;;;;;;;1.37;1.20;;;;;;;15.15;56.31;98645.81;5053564;28;20574;-70
2022/08/07 04:35:38;;;;;;;1.47;0.87;;;;;;;15.08;56.46;98645.13;5053657;28;20290;-70
2022/08/07 04:38:09;;;;;;;1.53;1.10;;;;;;;15.14;56.72;98640.69;5053050;28;20207;-70
2022/08/07 04:40:40;;;;;;;2.73;1.27;;;;;;;15.30;55.94;98637.31;5053186;28;20759;-70
2022/08/07 04:43:06;;;;;;;1.73;1.10;;;;;;;15.38;55.33;98636.97;5053358;28;20190;-70
2022/08/07 04:45:53;;;;;;;1.37;1.10;;;;;;;15.33;55.56;98645.69;5053152;28;20757;-70
2022/08/07 04:48:22;;;;;;;1.93;1.20;;;;;;;15.29;55.34;98655.22;5053591;28;20204;-70
2022/08/07 04:51:00;;;;;;;1.63;1.10;;;;;;;15.19;55.71;98651.53;5053418;28;20311;-70
2022/08/07 04:53:38;;;;;;;1.23;1.00;;;;;;;15.20;56.04;98661.19;5036826;28;20193;-70
2022/08/07 04:56:07;;;;;;;2.00;1.00;;;;;;;15.11;56.50;98657.22;5053448;28;20196;-70
2022/08/07 04:58:34;;;;;;;2.47;1.00;;;;;;;15.27;56.17;98654.66;5036008;28;20211;-70
2022/08/07 05:01:13;;;;;;;2.47;1.30;;;;;;;15.45;56.06;98651.88;5053278;28;20296;-70
2022/08/07 05:04:37;;;;;;;1.43;1.03;;;;;;;15.72;55.23;98653.00;5053460;28;20550;-70
2022/08/07 05:07:20;;;;;;;1.77;1.00;;;;;;;16.01;54.19;98657.31;4952743;29;20230;-70
2022/08/07 05:10:02;;;;;;;1.97;1.30;;;;;;;16.23;53.64;98650.25;5053180;28;20239;-70
2022/08/07 05:12:35;;;;;;;1.20;1.10;;;;;;;16.18;53.42;98658.19;5053330;28;20195;-70
2022/08/07 05:15:15;;;;;;;1.67;1.10;;;;;;;16.27;53.06;98664.81;5036043;28;20296;-70
2022/08/07 05:17:46;;;;;;;3.77;1.00;;;;;;;16.25;53.54;98666.09;5036016;28;20193;-70
2022/08/07 05:20:22;;;;;;;2.77;1.00;;;;;;;16.31;53.70;98665.97;5035285;28;20580;-70
2022/08/07 05:22:52;;;;;;;1.70;1.10;;;;;;;16.37;54.03;98666.88;5053624;28;20193;-70
2022/08/07 05:25:21;;;;;;;1.93;1.30;;;;;;;16.38;53.49;98673.88;5052959;28;20573;-70
2022/08/07 05:27:49;;;;;;;1.97;1.20;;;;;;;16.48;53.97;98666.03;5035510;28;20209;-70
2022/08/07 05:30:17;;;;;;;1.30;1.20;;;;;;;16.46;53.99;98671.63;5056771;28;20278;-70
2022/08/07 05:32:46;;;;;;;2.13;1.40;;;;;;;16.57;54.00;98673.44;5039283;28;20682;-70
2022/08/07 05:35:17;;;;;;;1.10;1.10;;;;;;;16.68;53.83;98679.78;5057099;28;20212;-70
2022/08/07 05:37:44;;;;;;;1.97;1.33;;;;;;;16.82;54.08;98683.81;5057089;28;20247;-70
2022/08/07 05:40:12;;;;;;;1.23;1.10;;;;;;;16.95;54.34;98676.22;5039117;28;20221;-70
2022/08/07 05:42:39;;;;;;;2.00;1.37;;;;;;;17.00;53.72;98670.94;5056821;28;20301;-70
2022/08/07 05:45:06;;;;;;;2.13;1.40;;;;;;;17.07;53.52;98674.28;5056836;28;20291;-70
2022/08/07 05:47:33;;;;;;;1.27;1.13;;;;;;;17.14;53.46;98668.75;5056883;28;20201;-70
2022/08/07 05:50:01;;;;;;;1.77;1.30;;;;;;;17.38;53.83;98670.97;5056485;28;20312;-70
2022/08/07 05:52:28;;;;;;;3.67;2.50;;;;;;;17.27;57.40;98674.56;5056768;28;20205;-70
2022/08/07 05:54:54;;;;;;;2.17;1.97;;;;;;;17.54;57.30;98678.22;5056792;28;20291;-70
2022/08/07 05:57:22;;;;;;;3.73;2.20;;;;;;;17.67;56.92;98680.56;5023109;28;20213;-70
2022/08/07 05:59:49;;;;;;;2.17;2.00;;;;;;;17.72;56.52;98682.50;5056298;28;20730;-70
2022/08/07 06:02:18;;;;;;;2.00;1.90;;;;;;;17.69;56.91;98683.00;5056706;28;20288;-70
2022/08/07 06:04:59;;;;;;;3.47;1.87;;;;;;;17.76;56.14;98681.75;5038969;28;20216;-70
2022/08/07 06:07:27;;;;;;;3.00;1.80;;;;;;;17.85;56.63;98682.13;5056521;28;20272;-70
2022/08/07 06:09:53;;;;;;;2.50;2.00;;;;;;;17.91;56.05;98681.94;5038354;28;20734;-70
2022/08/07 06:12:20;;;;;;;3.20;1.90;;;;;;;17.96;55.47;98684.69;5056354;28;20311;-70
2022/08/07 06:14:47;;;;;;;2.03;1.87;;;;;;;18.04;55.38;98683.44;5043930;28;20218;-70
2022/08/07 06:17:14;;;;;;;2.63;1.87;;;;;;;18.02;55.68;98688.25;5036348;28;20209;-69
2022/08/07 06:19:41;;;;;;;3.10;2.20;;;;;;;18.20;56.04;98682.56;5036472;28;20234;-70
2022/08/07 06:22:08;;;;;;;2.60;2.40;;;;;;;17.92;58.45;98678.19;5036355;28;20289;-69
2022/08/07 06:24:36;;;;;;;2.20;2.00;;;;;;;18.11;58.32;98682.19;5036057;28;20645;-70
2022/08/07 06:27:04;;;;;;;2.40;2.20;;;;;;;18.42;57.08;98689.53;5018839;28;20216;-70
2022/08/07 06:29:32;;;;;;;4.70;2.37;;;;;;;18.59;57.13;98687.56;5036217;28;20233;-70
2022/08/07 06:31:59;;;;;;;3.20;2.50;;;;;;;18.60;57.59;98677.63;5036237;28;20222;-70
2022/08/07 06:34:27;;;;;;;2.50;2.37;;;;;;;18.44;58.66;98673.13;5034984;28;20655;-70
2022/08/07 06:36:54;;;;;;;2.93;2.63;;;;;;;18.43;58.97;98680.44;5033786;28;20197;-70
2022/08/07 06:39:21;;;;;;;2.43;2.23;;;;;;;18.58;58.41;98671.66;5034539;28;20222;-70
2022/08/07 06:42:06;;;;;;;2.57;2.37;;;;;;;18.72;57.87;98672.88;5034115;28;20689;-70
2022/08/07 06:44:33;;;;;;;2.70;2.33;;;;;;;18.93;57.66;98670.13;5035565;28;20285;-70
2022/08/07 06:47:00;;;;;;;3.80;3.03;;;;;;;19.00;57.82;98665.31;5035735;28;20216;-71
2022/08/07 06:49:27;;;;;;;4.77;3.37;;;;;;;19.14;57.73;98669.19;5035866;28;20600;-70
2022/08/07 06:51:55;;;;;;;2.50;2.40;;;;;;;19.15;58.29;98665.44;5018290;28;20234;-70
2022/08/07 06:54:24;;;;;;;2.67;2.47;;;;;;;19.14;58.41;98663.00;5035779;28;20644;-70
2022/08/07 06:56:53;;;;;;;3.40;2.50;;;;;;;19.08;57.88;98664.00;5035757;28;20217;-70
2022/08/07 06:59:29;;;;;;;3.43;2.47;;;;;;;19.24;58.43;98669.31;5035295;28;20735;-70
2022/08/07 07:01:57;;;;;;;3.33;2.80;;;;;;;19.23;58.38;98672.25;5035268;28;20280;-70
2022/08/07 07:04:24;;;;;;;3.53;2.87;;;;;;;19.40;58.43;98671.00;5035725;28;20206;-70
2022/08/07 07:06:52;;;;;;;2.97;2.70;;;;;;;19.38;58.52;98675.88;5035361;28;20209;-70
2022/08/07 07:09:26;;;;;;;2.63;2.43;;;;;;;19.43;59.05;98672.38;5035259;28;20225;-70
2022/08/07 07:12:07;;;;;;;3.30;2.50;;;;;;;19.35;58.64;98670.97;5035324;28;20225;-70
2022/08/07 07:15:00;;;;;;;2.70;2.43;;;;;;;19.35;58.41;98662.91;5035929;28;20300;-70
2022/08/07 07:17:35;;;;;;;3.20;2.90;;;;;;;19.44;58.53;98661.34;5029336;28;20206;-70
2022/08/07 07:20:06;;;;;;;2.43;2.23;;;;;;;19.30;58.23;98665.56;5035013;28;20730;-70
2022/08/07 07:22:33;;;;;;;3.97;2.50;;;;;;;19.51;58.87;98671.88;5017589;28;20190;-70
2022/08/07 07:25:02;;;;;;;3.60;2.50;;;;;;;19.76;58.42;98665.81;5035125;28;20309;-70
2022/08/07 07:27:33;;;;;;;2.30;2.10;;;;;;;20.11;57.01;98671.41;5035102;28;20284;-70
2022/08/07 07:30:04;;;;;;;2.43;2.23;;;;;;;20.20;56.50;98664.38;5034680;28;20738;-69
2022/08/07 07:32:37;;;;;;;2.37;2.20;;;;;;;20.38;55.45;98663.91;5034800;28;20695;-70
2022/08/07 07:35:05;;;;;;;2.13;1.83;;;;;;;20.46;54.24;98660.69;5035025;28;20186;-70
2022/08/07 07:37:33;;;;;;;1.90;1.80;;;;;;;20.58;53.60;98656.63;5034886;28;20665;-70
2022/08/07 07:40:05;;;;;;;1.70;1.60;;;;;;;20.79;51.83;98654.78;5034798;28;20222;-70
2022/08/07 07:42:33;;;;;;;2.33;1.70;;;;;;;20.85;52.32;98659.13;5017406;28;20270;-70
2022/08/07 07:45:05;;;;;;;2.30;1.60;;;;;;;21.19;51.41;98643.97;5017313;28;20205;-70
2022/08/07 07:47:36;;;;;;;1.70;1.60;;;;;;;21.37;50.45;98648.81;5016992;28;20744;-70
2022/08/07 07:50:03;;;;;;;2.27;1.90;;;;;;;21.25;49.94;98651.00;5034584;28;20336;-69
2022/08/07 07:52:30;;;;;;;1.60;1.50;;;;;;;21.29;49.99;98643.97;5033267;28;20226;-70
2022/08/07 07:54:57;;;;;;;3.30;1.70;;;;;;;21.35;50.02;98651.78;5034505;28;20220;-70
2022/08/07 07:57:24;;;;;;;1.67;1.57;;;;;;;21.31;50.29;98649.91;5034389;28;20210;-70
2022/08/07 07:59:51;;;;;;;2.10;1.90;;;;;;;21.14;50.07;98652.09;5034054;28;20268;-70
2022/08/07 08:02:20;;;;;;;2.17;1.60;;;;;;;21.38;48.98;98634.22;5034387;28;20198;-70
2022/08/07 08:04:48;;;;;;;2.87;1.70;;;;;;;21.51;48.76;98644.44;5034217;28;20217;-70
2022/08/07 08:07:15;;;;;;;2.17;1.20;;;;;;;21.56;48.16;98641.75;5034245;28;20212;-70
2022/08/07 08:09:43;;;;;;;1.47;1.37;;;;;;;21.75;47.16;98638.19;5033974;28;20264;-70
2022/08/07 08:12:10;;;;;;;1.20;1.10;;;;;;;21.87;44.93;98632.44;5034169;28;20221;-70
2022/08/07 08:14:45;;;;;;;2.67;1.50;;;;;;;21.78;44.74;98639.53;5091240;28;20904;-70
2022/08/07 08:17:13;;;;;;;2.00;1.40;;;;;;;21.83;45.26;98637.63;5089597;28;20693;-70
2022/08/07 08:19:41;;;;;;;1.00;1.00;;;;;;;22.18;43.63;98636.63;5090622;28;20668;-70
2022/08/07 08:27:43;;;;;;;1.30;1.20;;;;;;;22.18;43.12;98628.50;5075670;28;20646;-70
2022/08/07 08:30:12;;;;;;;1.53;1.20;;;;;;;22.33;42.91;98626.53;5090716;28;20315;-70
2022/08/07 08:32:53;;;;;;;1.67;1.50;;;;;;;22.29;42.78;98630.09;5090613;28;20232;-70
2022/08/07 08:35:23;;;;;;;1.83;1.60;;;;;;;22.21;42.90;98626.03;5090744;28;20280;-70
2022/08/07 08:37:53;;;;;;;2.77;1.37;;;;;;;22.21;42.82;98625.25;5090424;28;20654;-71
2022/08/07 08:40:41;;;;;;;2.80;1.33;;;;;;;22.51;42.25;98627.78;5089403;28;20323;-70
2022/08/07 08:43:17;;;;;;;1.27;0.90;;;;;;;22.50;41.34;98626.16;5088742;28;20200;-70
2022/08/07 08:45:56;;;;;;;2.00;1.20;;;;;;;22.50;42.52;98612.63;5090958;28;20223;-70
2022/08/07 08:48:22;;;;;;;1.40;1.27;;;;;;;22.65;42.58;98617.94;5090057;28;20282;-70
2022/08/07 08:50:56;;;;;;;2.63;1.43;;;;;;;22.70;40.57;98626.03;5090017;28;20670;-70
2022/08/07 08:53:30;;;;;;;1.40;1.00;;;;;;;22.73;39.65;98614.59;5089102;28;20240;-70
2022/08/07 08:56:04;;;;;;;1.10;1.07;;;;;;;22.85;38.21;98615.06;5089943;28;20554;-70
2022/08/07 08:58:42;;;;;;;1.77;0.97;;;;;;;22.99;38.18;98618.72;5090469;28;20233;-70
2022/08/07 09:01:32;;;;;;;2.00;1.10;;;;;;;23.23;38.40;98619.63;5089690;28;20553;-70
2022/08/07 09:04:09;;;;;;;2.43;1.30;;;;;;;23.34;37.98;98613.78;5078350;28;20212;-70
2022/08/07 09:06:59;;;;;;;1.27;0.83;;;;;;;23.27;37.20;98612.53;5089310;28;20228;-70
2022/08/07 09:09:31;;;;;;;2.40;0.97;;;;;;;23.30;36.97;98614.66;5090402;28;20235;-70
2022/08/07 09:12:03;;;;;;;1.17;1.07;;;;;;;23.25;36.24;98612.00;5089724;28;20192;-70
2022/08/07 09:14:36;;;;;;;1.58;0.82;;;;;;;23.18;36.14;98608.78;5089236;28;20314;-70
2022/08/07 09:17:31;;;;;;;1.00;1.00;;;;;;;23.25;36.21;98606.59;5088702;28;20287;-70
2022/08/07 09:20:10;;;;;;;1.55;0.90;;;;;;;23.29;35.46;98611.13;5073377;28;20247;-70
2022/08/07 09:23:00;;;;;;;1.10;1.05;;;;;;;23.34;35.74;98608.38;5088555;28;20198;-70
2022/08/07 09:25:53;;;;;;;2.47;1.10;;;;;;;23.49;35.71;98600.09;5079611;28;20291;-70
2022/08/07 09:28:29;;;;;;;1.17;1.08;;;;;;;23.75;35.47;98604.09;5074618;28;20287;-70
2022/08/07 09:31:07;;;;;;;1.63;1.10;;;;;;;23.73;35.36;98610.91;5076190;28;20553;-70
2022/08/07 09:33:47;;;;;;;0.88;0.85;;;;;;;23.88;34.90;98610.75;5076018;28;20209;-70
2022/08/07 09:36:24;;;;;;;2.35;0.93;;;;;;;24.16;34.02;98616.06;5075962;28;20188;-70
2022/08/07 09:39:09;;;;;;;0.90;0.90;;;;;;;24.41;31.89;98617.63;5075984;28;20263;-70
2022/08/07 09:41:44;;;;;;;0.80;0.80;;;;;;;24.43;32.11;98610.00;5075756;28;20321;-70
2022/08/07 09:44:21;;;;;;;1.02;0.88;;;;;;;24.77;31.57;98610.56;5074229;28;20184;-70
2022/08/07 09:47:00;;;;;;;1.33;0.80;;;;;;;24.72;30.80;98605.22;5075528;28;20288;-70
2022/08/07 09:49:51;;;;;;;0.93;0.80;;;;;;;24.61;30.40;98609.22;5075669;28;20224;-70
2022/08/07 09:52:36;;;;;;;0.70;0.63;;;;;;;24.72;30.84;98607.94;5075363;28;20291;-70
2022/08/07 09:55:33;;;;;;;0.70;0.70;;;;;;;24.53;30.16;98598.97;5075626;28;20303;-70
2022/08/07 09:58:25;;;;;;;1.45;0.73;;;;;;;24.55;30.34;98594.03;5075574;28;20200;-70
2022/08/07 10:01:29;;;;;;;2.28;0.80;;;;;;;24.64;30.47;98592.28;5075641;28;20193;-70
2022/08/07 10:04:21;;;;;;;1.00;0.90;;;;;;;24.58;30.15;98588.84;5074993;28;20210;-70
2022/08/07 10:07:11;;;;;;;1.45;1.10;;;;;;;24.62;30.38;98586.34;5074539;28;20193;-70
2022/08/07 10:09:53;;;;;;;1.30;1.20;;;;;;;24.51;30.59;98590.31;5074220;28;20270;-70
2022/08/07 10:12:43;;;;;;;1.00;0.90;;;;;;;24.63;30.10;98588.78;5075296;28;20196;-71
2022/08/07 10:15:28;;;;;;;1.42;0.90;;;;;;;24.89;29.98;98573.66;5075192;28;20205;-71
2022/08/07 10:18:42;;;;;;;0.73;0.73;;;;;;;24.89;29.82;98576.38;5075259;28;20195;-70
2022/08/07 10:21:28;;;;;;;1.65;0.90;;;;;;;24.87;29.87;98575.06;5055016;28;20291;-70
2022/08/07 10:24:25;;;;;;;0.95;0.85;;;;;;;25.12;29.95;98561.81;5074882;28;20277;-71
2022/08/07 10:26:58;;;;;;;1.77;1.00;;;;;;;25.14;29.30;98564.25;5074897;28;20201;-70
2022/08/07 10:29:41;;;;;;;1.70;1.20;;;;;;;24.96;29.57;98565.91;5074518;28;20792;-70
2022/08/07 10:32:22;;;;;;;0.70;0.70;;;;;;;25.33;29.93;98557.63;5074550;28;20669;-70
2022/08/07 10:35:15;;;;;;;1.67;0.90;;;;;;;25.33;29.66;98556.81;5074615;28;20228;-70
2022/08/07 10:38:00;;;;;;;1.33;0.90;;;;;;;25.51;29.34;98553.19;5073383;28;20189;-70
2022/08/07 10:40:42;;;;;;;2.67;0.90;;;;;;;25.63;28.22;98540.69;5074514;28;20228;-70
2022/08/07 10:43:20;;;;;;;0.75;0.75;;;;;;;25.73;28.73;98545.91;5075074;28;20192;-70
2022/08/07 10:45:50;;;;;;;0.70;0.70;;;;;;;25.72;28.88;98535.31;5074247;28;20220;-70
2022/08/07 10:48:47;;;;;;;1.70;0.80;;;;;;;25.91;28.25;98544.19;5074106;28;20568;-70
2022/08/07 10:51:13;;;;;;;1.13;0.88;;;;;;;25.89;29.03;98533.59;5074155;28;20185;-70
2022/08/07 10:53:46;;;;;;;0.80;0.80;;;;;;;25.90;28.61;98531.66;5074139;28;20235;-71
2022/08/07 10:56:29;;;;;;;3.15;0.90;;;;;;;25.89;28.90;98532.78;5073979;28;20251;-70
2022/08/07 10:59:00;;;;;;;1.05;0.88;;;;;;;25.83;29.37;98534.78;5074275;28;20323;-71
2022/08/07 11:01:53;;;;;;;1.42;1.33;;;;;;;25.72;28.54;98529.88;5074205;28;20533;-70
2022/08/07 11:04:40;;;;;;;1.20;0.70;;;;;;;25.51;27.47;98528.69;5073975;28;20184;-70
2022/08/07 11:07:25;;;;;;;2.30;0.90;;;;;;;25.75;27.69;98519.19;5072291;28;20193;-70
2022/08/07 11:09:57;;;;;;;1.00;0.70;;;;;;;25.23;28.51;98519.69;5073718;28;20315;-70
2022/08/07 11:12:33;;;;;;;1.45;0.90;;;;;;;25.48;28.62;98511.06;5073861;28;20276;-70
2022/08/07 11:15:05;;;;;;;0.73;0.73;;;;;;;25.69;28.32;98509.50;5073984;28;20258;-70
2022/08/07 11:17:35;;;;;;;1.58;0.80;;;;;;;25.73;29.45;98507.78;5073682;28;20193;-70
2022/08/07 11:20:07;;;;;;;2.10;0.88;;;;;;;25.81;29.74;98503.50;5073876;28;20232;-70
2022/08/07 11:23:08;;;;;;;1.45;0.90;;;;;;;25.50;29.68;98494.38;5073488;28;20204;-70
2022/08/07 11:25:38;;;;;;;1.00;0.88;;;;;;;25.56;29.71;98495.91;5064830;28;20530;-70
2022/08/07 11:28:15;;;;;;;1.10;0.90;;;;;;;25.41;29.37;98491.59;5073872;28;20211;-70
2022/08/07 11:30:56;;;;;;;0.88;0.77;;;;;;;25.80;29.60;98491.84;5073735;28;20255;-70
2022/08/07 11:33:45;;;;;;;1.02;0.80;;;;;;;25.96;28.87;98489.59;5073406;28;20213;-71
2022/08/07 11:36:43;;;;;;;0.77;0.68;;;;;;;25.99;28.86;98492.50;5072286;28;20201;-71
2022/08/07 11:39:19;;;;;;;1.13;0.90;;;;;;;26.05;28.78;98482.31;5072931;28;20235;-71
2022/08/07 11:42:12;;;;;;;1.27;1.17;;;;;;;25.96;29.01;98484.94;5072024;28;20199;-70
2022/08/07 11:44:54;;;;;;;0.85;0.73;;;;;;;25.72;28.95;98480.84;5070528;28;20594;-70
2022/08/07 11:47:43;;;;;;;0.85;0.85;;;;;;;25.68;29.44;98482.56;5073472;28;20225;-70
2022/08/07 11:50:28;;;;;;;3.42;3.13;;;;;;;25.40;29.67;98483.72;5072918;28;20224;-71
2022/08/07 11:53:14;;;;;;;0.95;0.85;;;;;;;25.22;29.98;98484.59;5072080;28;20608;-71
2022/08/07 11:55:58;;;;;;;1.80;1.10;;;;;;;25.75;29.84;98482.97;5073542;28;20185;-70
2022/08/07 11:58:43;;;;;;;1.10;1.00;;;;;;;25.84;28.95;98481.94;5073269;28;20283;-70
2022/08/07 12:01:23;;;;;;;1.63;1.30;;;;;;;25.98;29.04;98476.47;5073461;28;20633;-70
2022/08/07 12:04:16;;;;;;;1.40;1.30;;;;;;;25.96;28.87;98479.50;5071724;28;20196;-70
2022/08/07 12:07:01;;;;;;;0.98;0.85;;;;;;;25.99;28.48;98461.72;5073886;28;20189;-70